createdAt,value
2019-03-21T00:00:45.951Z,14.85
2019-03-21T00:01:53.539Z,16.00
2019-03-21T00:02:58.962Z,16.20
2019-03-21T00:04:07.705Z,15.60
2019-03-21T00:05:13.300Z,15.43
2019-03-21T00:06:18.902Z,16.35
2019-03-21T00:07:24.348Z,16.45
2019-03-21T00:08:29.706Z,16.25
2019-03-21T00:09:35.198Z,15.78
2019-03-21T00:11:16.047Z,16.50
2019-03-21T00:12:21.474Z,16.23
2019-03-21T00:13:26.872Z,16.67
2019-03-21T00:14:47.338Z,16.12
2019-03-21T00:15:54.992Z,16.30
2019-03-21T00:17:00.307Z,17.20
2019-03-21T00:18:08.999Z,18.37
2019-03-21T00:19:14.486Z,18.67
2019-03-21T00:20:19.787Z,17.25
2019-03-21T00:21:25.236Z,17.05
2019-03-21T00:22:30.609Z,17.60
2019-03-21T00:23:35.931Z,17.98
2019-03-21T00:24:41.385Z,15.95
2019-03-21T00:25:46.728Z,18.52
2019-03-21T00:26:52.045Z,17.12
2019-03-21T00:27:57.805Z,17.00
2019-03-21T00:29:03.287Z,17.60
2019-03-21T00:30:17.785Z,17.80
2019-03-21T00:31:23.240Z,17.50
2019-03-21T00:32:29.460Z,16.90
2019-03-21T00:33:34.921Z,17.82
2019-03-21T00:34:40.232Z,17.40
2019-03-21T00:35:45.688Z,17.23
2019-03-21T00:36:50.979Z,17.07
2019-03-21T00:37:56.300Z,17.27
2019-03-21T00:39:01.649Z,17.40
2019-03-21T00:40:08.948Z,17.57
2019-03-21T00:41:14.349Z,17.55
2019-03-21T00:42:19.767Z,17.80
2019-03-21T00:43:25.045Z,17.67
2019-03-21T00:44:30.664Z,17.52
2019-03-21T00:45:35.950Z,16.95
2019-03-21T00:46:41.401Z,16.70
2019-03-21T00:47:46.949Z,16.20
2019-03-21T00:48:52.232Z,15.58
2019-03-21T00:49:57.784Z,16.45
2019-03-21T00:51:03.063Z,16.27
2019-03-21T00:52:08.486Z,15.68
2019-03-21T00:53:13.800Z,15.43
2019-03-21T00:54:19.228Z,16.70
2019-03-21T00:55:24.853Z,14.85
2019-03-21T00:56:30.296Z,15.10
2019-03-21T00:57:35.572Z,14.98
2019-03-21T00:58:41.004Z,16.35
2019-03-21T00:59:46.328Z,15.43
2019-03-21T01:00:53.732Z,15.80
2019-03-21T01:01:59.181Z,16.42
2019-03-21T01:03:04.926Z,15.93
2019-03-21T01:04:10.230Z,15.98
2019-03-21T01:05:15.840Z,14.40
2019-03-21T01:06:21.389Z,16.35
2019-03-21T01:07:26.828Z,15.23
2019-03-21T01:08:32.155Z,15.28
2019-03-21T01:09:38.181Z,14.98
2019-03-21T01:10:43.561Z,14.70
2019-03-21T01:11:49.064Z,15.68
2019-03-21T01:12:54.413Z,15.60
2019-03-21T01:13:59.851Z,14.83
2019-03-21T01:15:05.752Z,15.30
2019-03-21T01:16:11.218Z,15.38
2019-03-21T01:17:16.779Z,15.28
2019-03-21T01:18:22.247Z,14.58
2019-03-21T01:19:27.545Z,14.63
2019-03-21T01:20:32.887Z,15.85
2019-03-21T01:21:38.292Z,15.50
2019-03-21T01:22:43.923Z,14.55
2019-03-21T01:23:49.232Z,15.08
2019-03-21T01:24:54.531Z,14.50
2019-03-21T01:26:00.292Z,14.83
2019-03-21T01:27:05.616Z,15.08
2019-03-21T01:28:10.900Z,13.15
2019-03-21T01:29:16.204Z,14.43
2019-03-21T01:30:21.984Z,12.88
2019-03-21T01:31:27.294Z,13.08
2019-03-21T01:32:32.612Z,13.50
2019-03-21T01:33:37.960Z,14.35
2019-03-21T01:34:43.301Z,13.83
2019-03-21T01:35:48.733Z,13.10
2019-03-21T01:36:54.026Z,12.40
2019-03-21T01:37:59.532Z,12.10
2019-03-21T01:39:06.309Z,13.15
2019-03-21T01:40:14.680Z,12.93
2019-03-21T01:41:20.052Z,12.82
2019-03-21T01:42:25.384Z,12.40
2019-03-21T01:43:30.700Z,12.15
2019-03-21T01:44:40.932Z,12.28
2019-03-21T01:45:43.024Z,12.95
2019-03-21T01:46:48.543Z,12.80
2019-03-21T01:47:54.533Z,12.98
2019-03-21T01:48:59.883Z,13.53
2019-03-21T01:50:05.399Z,13.20
2019-03-21T01:51:10.876Z,13.80
2019-03-21T01:52:16.181Z,12.28
2019-03-21T01:53:21.452Z,12.55
2019-03-21T01:54:26.780Z,13.40
2019-03-21T01:55:32.077Z,12.88
2019-03-21T01:56:37.456Z,12.63
2019-03-21T01:57:42.862Z,13.40
2019-03-21T01:58:48.207Z,14.78
2019-03-21T01:59:53.516Z,13.53
2019-03-21T02:00:59.084Z,13.70
2019-03-21T02:02:04.816Z,13.60
2019-03-21T02:03:10.188Z,13.85
2019-03-21T02:04:15.531Z,13.62
2019-03-21T02:05:20.847Z,14.28
2019-03-21T02:06:26.199Z,13.62
2019-03-21T02:07:31.527Z,12.88
2019-03-21T02:08:36.852Z,12.45
2019-03-21T02:09:42.208Z,13.10
2019-03-21T02:10:47.653Z,12.53
2019-03-21T02:11:53.040Z,13.93
2019-03-21T02:12:58.463Z,13.78
2019-03-21T02:14:03.900Z,14.28
2019-03-21T02:15:10.474Z,13.48
2019-03-21T02:16:15.824Z,13.03
2019-03-21T02:17:21.188Z,12.82
2019-03-21T02:18:26.490Z,12.85
2019-03-21T02:19:31.812Z,12.00
2019-03-21T02:20:37.092Z,13.60
2019-03-21T02:21:42.441Z,11.60
2019-03-21T02:22:47.862Z,12.20
2019-03-21T02:23:53.307Z,12.47
2019-03-21T02:24:58.612Z,12.88
2019-03-21T02:26:03.877Z,13.08
2019-03-21T02:27:09.353Z,12.73
2019-03-21T02:28:14.665Z,13.03
2019-03-21T02:29:19.992Z,12.98
2019-03-21T02:30:28.033Z,12.07
2019-03-21T02:31:33.485Z,12.47
2019-03-21T02:32:38.828Z,12.58
2019-03-21T02:33:45.068Z,13.10
2019-03-21T02:34:50.482Z,12.00
2019-03-21T02:35:55.817Z,10.80
2019-03-21T02:37:01.162Z,12.25
2019-03-21T02:38:06.433Z,12.18
2019-03-21T02:39:11.772Z,12.55
2019-03-21T02:40:18.670Z,12.33
2019-03-21T02:41:25.813Z,12.18
2019-03-21T02:42:31.138Z,12.80
2019-03-21T02:43:36.733Z,12.23
2019-03-21T02:44:42.121Z,13.48
2019-03-21T02:45:47.520Z,12.23
2019-03-21T02:46:52.813Z,12.30
2019-03-21T02:47:58.176Z,11.40
2019-03-21T02:49:03.463Z,11.70
2019-03-21T02:50:11.765Z,11.65
2019-03-21T02:51:17.097Z,11.45
2019-03-21T02:52:22.412Z,11.73
2019-03-21T02:53:27.733Z,12.53
2019-03-21T02:54:33.077Z,12.07
2019-03-21T02:55:38.387Z,12.07
2019-03-21T02:56:44.128Z,11.85
2019-03-21T02:57:49.448Z,12.00
2019-03-21T02:58:57.961Z,12.50
2019-03-21T03:00:03.370Z,11.57
2019-03-21T03:01:08.706Z,11.75
2019-03-21T03:02:14.149Z,12.30
2019-03-21T03:03:19.470Z,13.10
2019-03-21T03:04:24.988Z,12.03
2019-03-21T03:05:31.145Z,13.40
2019-03-21T03:06:36.586Z,12.25
2019-03-21T03:07:41.901Z,11.28
2019-03-21T03:08:47.261Z,11.50
2019-03-21T03:09:52.677Z,11.68
2019-03-21T03:10:57.983Z,11.38
2019-03-21T03:12:03.390Z,12.00
2019-03-21T03:13:08.833Z,12.43
2019-03-21T03:14:14.121Z,12.40
2019-03-21T03:15:22.972Z,11.80
2019-03-21T03:16:27.253Z,11.60
2019-03-21T03:17:32.565Z,11.55
2019-03-21T03:18:37.840Z,10.82
2019-03-21T03:19:43.256Z,11.12
2019-03-21T03:20:48.541Z,11.50
2019-03-21T03:21:53.840Z,11.08
2019-03-21T03:22:59.236Z,12.15
2019-03-21T03:24:04.597Z,11.10
2019-03-21T03:25:10.700Z,12.33
2019-03-21T03:26:16.010Z,11.05
2019-03-21T03:27:21.309Z,10.95
2019-03-21T03:28:27.154Z,11.65
2019-03-21T03:29:32.490Z,12.05
2019-03-21T03:30:37.797Z,11.68
2019-03-21T03:31:43.127Z,12.10
2019-03-21T03:32:48.441Z,10.82
2019-03-21T03:33:53.765Z,12.07
2019-03-21T03:34:59.090Z,11.90
2019-03-21T03:36:04.760Z,11.88
2019-03-21T03:37:10.086Z,12.80
2019-03-21T03:38:15.524Z,11.55
2019-03-21T03:39:20.885Z,11.38
2019-03-21T03:40:41.753Z,11.35
2019-03-21T03:41:47.101Z,11.22
2019-03-21T03:42:52.438Z,11.05
2019-03-21T03:43:57.720Z,11.00
2019-03-21T03:45:03.311Z,11.68
2019-03-21T03:46:08.901Z,10.90
2019-03-21T03:47:14.250Z,12.37
2019-03-21T03:48:20.103Z,11.53
2019-03-21T03:49:25.864Z,11.08
2019-03-21T03:50:31.195Z,11.03
2019-03-21T03:51:36.662Z,11.22
2019-03-21T03:52:42.005Z,10.98
2019-03-21T03:53:47.292Z,10.82
2019-03-21T03:54:52.737Z,10.68
2019-03-21T03:55:58.026Z,10.75
2019-03-21T03:57:03.457Z,10.93
2019-03-21T03:58:11.152Z,10.68
2019-03-21T03:59:16.414Z,10.40
2019-03-21T04:00:22.175Z,10.80
2019-03-21T04:01:27.605Z,11.25
2019-03-21T04:02:33.026Z,9.78
2019-03-21T04:03:38.394Z,11.05
2019-03-21T04:04:44.030Z,10.85
2019-03-21T04:05:49.477Z,10.03
2019-03-21T04:06:54.797Z,10.63
2019-03-21T04:08:00.241Z,10.55
2019-03-21T04:09:07.078Z,11.80
2019-03-21T04:10:15.714Z,10.03
2019-03-21T04:11:21.171Z,10.40
2019-03-21T04:12:27.004Z,10.70
2019-03-21T04:13:35.185Z,10.95
2019-03-21T04:14:40.505Z,10.43
2019-03-21T04:15:52.630Z,9.73
2019-03-21T04:16:52.916Z,10.45
2019-03-21T04:17:58.260Z,10.28
2019-03-21T04:19:03.620Z,11.50
2019-03-21T04:20:10.932Z,10.65
2019-03-21T04:21:16.301Z,9.88
2019-03-21T04:22:21.632Z,10.48
2019-03-21T04:23:26.956Z,11.05
2019-03-21T04:24:32.305Z,8.90
2019-03-21T04:25:59.013Z,10.32
2019-03-21T04:27:04.590Z,9.73
2019-03-21T04:28:13.680Z,9.63
2019-03-21T04:29:19.010Z,9.40
2019-03-21T04:30:24.420Z,10.18
2019-03-21T04:31:29.778Z,10.85
2019-03-21T04:32:35.088Z,11.22
2019-03-21T04:33:40.562Z,11.00
2019-03-21T04:34:46.920Z,9.88
2019-03-21T04:35:52.278Z,11.03
2019-03-21T04:36:57.618Z,10.00
2019-03-21T04:38:02.921Z,10.08
2019-03-21T04:39:09.888Z,9.98
2019-03-21T04:40:15.325Z,10.25
2019-03-21T04:41:20.748Z,11.05
2019-03-21T04:42:26.052Z,10.15
2019-03-21T04:43:31.308Z,10.23
2019-03-21T04:44:36.709Z,11.00
2019-03-21T04:45:41.964Z,10.68
2019-03-21T04:46:47.377Z,10.30
2019-03-21T04:47:52.776Z,9.90
2019-03-21T04:48:58.100Z,10.32
2019-03-21T04:50:03.413Z,10.08
2019-03-21T04:51:08.817Z,9.60
2019-03-21T04:52:14.244Z,9.88
2019-03-21T04:53:19.576Z,9.80
2019-03-21T04:54:25.096Z,10.65
2019-03-21T04:55:30.404Z,11.35
2019-03-21T04:56:35.811Z,10.65
2019-03-21T04:57:41.087Z,10.50
2019-03-21T04:58:46.428Z,9.73
2019-03-21T04:59:51.772Z,9.68
2019-03-21T05:00:57.136Z,10.20
2019-03-21T05:02:02.403Z,10.13
2019-03-21T05:03:08.398Z,9.63
2019-03-21T05:04:13.826Z,9.93
2019-03-21T05:05:19.197Z,9.40
2019-03-21T05:06:24.529Z,10.20
2019-03-21T05:07:29.845Z,9.68
2019-03-21T05:08:35.289Z,9.68
2019-03-21T05:09:40.636Z,9.23
2019-03-21T05:10:45.934Z,10.53
2019-03-21T05:11:51.272Z,9.80
2019-03-21T05:12:56.637Z,9.35
2019-03-21T05:14:01.976Z,9.80
2019-03-21T05:15:10.188Z,9.83
2019-03-21T05:16:15.524Z,9.60
2019-03-21T05:17:20.880Z,10.30
2019-03-21T05:18:37.368Z,10.90
2019-03-21T05:19:42.780Z,10.45
2019-03-21T05:20:48.109Z,10.90
2019-03-21T05:21:53.509Z,9.98
2019-03-21T05:22:58.964Z,10.32
2019-03-21T05:24:04.656Z,10.15
2019-03-21T05:25:11.231Z,10.78
2019-03-21T05:26:16.907Z,9.93
2019-03-21T05:27:22.452Z,12.20
2019-03-21T05:28:27.784Z,9.83
2019-03-21T05:29:33.552Z,9.98
2019-03-21T05:30:42.484Z,10.88
2019-03-21T05:31:47.969Z,10.03
2019-03-21T05:32:53.236Z,11.57
2019-03-21T05:33:58.866Z,10.58
2019-03-21T05:35:05.345Z,10.55
2019-03-21T05:36:10.770Z,10.43
2019-03-21T05:37:16.246Z,11.20
2019-03-21T05:38:21.853Z,10.45
2019-03-21T05:39:27.350Z,11.03
2019-03-21T05:40:32.805Z,9.70
2019-03-21T05:41:38.260Z,10.55
2019-03-21T05:42:55.832Z,10.80
2019-03-21T05:44:05.200Z,10.13
2019-03-21T05:45:11.450Z,10.70
2019-03-21T05:46:26.020Z,10.53
2019-03-21T05:47:24.371Z,11.55
2019-03-21T05:48:29.868Z,11.48
2019-03-21T05:49:35.385Z,11.55
2019-03-21T05:50:40.776Z,11.18
2019-03-21T05:51:46.188Z,10.58
2019-03-21T05:52:51.756Z,11.90
2019-03-21T05:53:57.069Z,11.22
2019-03-21T05:55:02.493Z,12.82
2019-03-21T05:56:08.287Z,12.33
2019-03-21T05:57:13.879Z,11.85
2019-03-21T05:58:19.331Z,15.38
2019-03-21T05:59:24.853Z,11.88
2019-03-21T06:00:34.600Z,12.90
2019-03-21T06:01:40.217Z,11.97
2019-03-21T06:02:45.776Z,10.85
2019-03-21T06:03:51.833Z,12.28
2019-03-21T06:04:57.500Z,11.83
2019-03-21T06:06:07.048Z,12.78
2019-03-21T06:07:36.141Z,12.70
2019-03-21T06:08:42.245Z,11.45
2019-03-21T06:09:47.890Z,12.37
2019-03-21T06:10:53.360Z,12.80
2019-03-21T06:11:59.612Z,13.10
2019-03-21T06:13:05.167Z,12.50
2019-03-21T06:14:10.673Z,12.40
2019-03-21T06:15:18.976Z,10.40
2019-03-21T06:16:24.360Z,11.93
2019-03-21T06:17:30.892Z,10.85
2019-03-21T06:19:31.762Z,12.28
2019-03-21T06:21:28.106Z,11.25
2019-03-21T06:23:17.551Z,11.75
2019-03-21T06:24:57.082Z,11.28
2019-03-21T06:26:13.973Z,11.45
2019-03-21T06:27:36.734Z,11.35
2019-03-21T06:28:42.592Z,12.58
2019-03-21T06:29:48.276Z,11.85
2019-03-21T06:30:53.858Z,12.00
2019-03-21T06:31:59.779Z,11.30
2019-03-21T06:33:05.362Z,10.75
2019-03-21T06:34:10.959Z,10.85
2019-03-21T06:35:24.120Z,11.55
2019-03-21T06:36:33.025Z,11.12
2019-03-21T06:37:38.548Z,11.38
2019-03-21T06:38:44.084Z,10.70
2019-03-21T06:39:49.461Z,9.58
2019-03-21T06:40:54.812Z,11.43
2019-03-21T06:42:00.248Z,10.60
2019-03-21T06:43:05.736Z,10.18
2019-03-21T06:44:11.060Z,9.65
2019-03-21T06:45:16.597Z,9.18
2019-03-21T06:46:22.092Z,8.80
2019-03-21T06:47:27.604Z,8.98
2019-03-21T06:48:33.335Z,8.53
2019-03-21T06:49:39.306Z,10.13
2019-03-21T06:50:45.063Z,8.98
2019-03-21T06:51:50.484Z,9.33
2019-03-21T06:52:56.015Z,8.95
2019-03-21T06:54:01.653Z,8.70
2019-03-21T06:55:07.169Z,9.08
2019-03-21T06:56:12.691Z,8.35
2019-03-21T06:57:18.384Z,8.58
2019-03-21T06:58:23.886Z,7.97
2019-03-21T06:59:29.392Z,8.45
2019-03-21T07:00:34.837Z,8.15
2019-03-21T07:01:40.540Z,8.73
2019-03-21T07:02:46.118Z,8.35
2019-03-21T07:03:51.708Z,8.80
2019-03-21T07:04:57.206Z,8.03
2019-03-21T07:06:02.705Z,7.90
2019-03-21T07:07:08.762Z,8.35
2019-03-21T07:08:14.500Z,7.72
2019-03-21T07:09:20.017Z,6.90
2019-03-21T07:10:25.608Z,7.28
2019-03-21T07:11:31.060Z,6.92
2019-03-21T07:12:36.622Z,7.12
2019-03-21T07:13:42.457Z,6.95
2019-03-21T07:14:48.089Z,7.05
2019-03-21T07:15:53.691Z,8.13
2019-03-21T07:17:00.652Z,8.60
2019-03-21T07:18:06.626Z,8.03
2019-03-21T07:19:12.440Z,8.38
2019-03-21T07:20:18.272Z,7.80
2019-03-21T07:21:23.735Z,7.55
2019-03-21T07:22:29.172Z,8.70
2019-03-21T07:23:34.672Z,8.00
2019-03-21T07:24:40.147Z,7.85
2019-03-21T07:25:45.645Z,8.43
2019-03-21T07:26:51.060Z,8.10
2019-03-21T07:27:56.659Z,6.87
2019-03-21T07:29:02.843Z,7.65
2019-03-21T07:30:10.308Z,7.60
2019-03-21T07:31:15.901Z,7.70
2019-03-21T07:32:32.889Z,7.67
2019-03-21T07:33:28.743Z,8.00
2019-03-21T07:34:34.424Z,7.20
2019-03-21T07:35:40.086Z,6.70
2019-03-21T07:36:45.555Z,7.47
2019-03-21T07:37:51.057Z,6.58
2019-03-21T07:38:56.708Z,7.00
2019-03-21T07:40:02.096Z,6.22
2019-03-21T07:41:07.656Z,6.37
2019-03-21T07:42:13.314Z,8.03
2019-03-21T07:43:18.710Z,7.03
2019-03-21T07:44:24.173Z,6.05
2019-03-21T07:45:29.966Z,5.83
2019-03-21T07:46:35.363Z,6.47
2019-03-21T07:47:40.816Z,6.62
2019-03-21T07:48:46.440Z,6.12
2019-03-21T07:49:51.940Z,6.53
2019-03-21T07:50:57.353Z,5.85
2019-03-21T07:52:02.892Z,5.92
2019-03-21T07:53:08.413Z,5.87
2019-03-21T07:54:13.930Z,5.97
2019-03-21T07:55:19.619Z,6.42
2019-03-21T07:56:25.170Z,5.70
2019-03-21T07:57:30.707Z,6.25
2019-03-21T07:58:36.352Z,6.08
2019-03-21T07:59:41.925Z,6.12
2019-03-21T08:00:47.386Z,5.70
2019-03-21T08:01:55.138Z,5.70
2019-03-21T08:03:01.000Z,5.55
2019-03-21T08:04:06.792Z,5.15
2019-03-21T08:05:12.610Z,5.65
2019-03-21T08:06:18.100Z,4.70
2019-03-21T08:07:23.900Z,4.85
2019-03-21T08:08:29.336Z,4.33
2019-03-21T08:09:35.135Z,4.92
2019-03-21T08:10:44.114Z,5.08
2019-03-21T08:11:49.410Z,4.80
2019-03-21T08:12:54.971Z,4.42
2019-03-21T08:14:01.174Z,5.65
2019-03-21T08:15:08.500Z,4.53
2019-03-21T08:16:13.947Z,4.47
2019-03-21T08:17:19.389Z,5.05
2019-03-21T08:18:24.920Z,4.65
2019-03-21T08:19:30.476Z,4.37
2019-03-21T08:20:37.667Z,4.03
2019-03-21T08:21:43.339Z,3.98
2019-03-21T08:22:49.001Z,4.00
2019-03-21T08:23:54.578Z,4.15
2019-03-21T08:25:00.365Z,5.30
2019-03-21T08:26:06.212Z,4.45
2019-03-21T08:27:11.998Z,4.17
2019-03-21T08:28:17.667Z,4.20
2019-03-21T08:29:23.593Z,4.62
2019-03-21T08:30:37.165Z,5.03
2019-03-21T08:31:42.918Z,4.42
2019-03-21T08:32:48.572Z,5.37
2019-03-21T08:33:54.300Z,5.33
2019-03-21T08:34:59.845Z,4.90
2019-03-21T08:36:06.605Z,5.53
2019-03-21T08:37:12.355Z,5.05
2019-03-21T08:38:17.992Z,5.42
2019-03-21T08:39:23.684Z,4.95
2019-03-21T08:40:29.235Z,5.12
2019-03-21T08:41:34.944Z,5.25
2019-03-21T08:42:40.600Z,5.75
2019-03-21T08:43:46.564Z,5.72
2019-03-21T08:44:52.143Z,5.83
2019-03-21T08:45:57.768Z,5.62
2019-03-21T08:47:03.953Z,6.05
2019-03-21T08:48:09.531Z,5.53
2019-03-21T08:49:15.081Z,6.12
2019-03-21T08:50:20.767Z,5.85
2019-03-21T08:51:26.357Z,7.25
2019-03-21T08:52:32.004Z,5.92
2019-03-21T08:53:37.659Z,6.30
2019-03-21T08:54:43.313Z,6.42
2019-03-21T08:55:48.936Z,5.87
2019-03-21T08:56:54.451Z,6.12
2019-03-21T08:57:59.985Z,6.37
2019-03-21T08:59:06.602Z,6.15
2019-03-21T09:00:12.474Z,6.50
2019-03-21T09:01:18.173Z,5.97
2019-03-21T09:02:23.705Z,5.85
2019-03-21T09:03:29.592Z,7.42
2019-03-21T09:04:35.187Z,6.50
2019-03-21T09:05:40.947Z,6.72
2019-03-21T09:06:46.398Z,7.40
2019-03-21T09:07:52.301Z,6.47
2019-03-21T09:08:57.948Z,6.42
2019-03-21T09:10:03.572Z,7.15
2019-03-21T09:11:09.134Z,8.60
2019-03-21T09:12:14.684Z,6.78
2019-03-21T09:13:20.406Z,6.53
2019-03-21T09:14:26.040Z,7.45
2019-03-21T09:15:31.599Z,6.50
2019-03-21T09:16:37.301Z,6.55
2019-03-21T09:17:42.788Z,7.08
2019-03-21T09:18:48.324Z,6.70
2019-03-21T09:19:53.893Z,7.15
2019-03-21T09:20:59.445Z,6.40
2019-03-21T09:22:05.048Z,6.85
2019-03-21T09:23:10.711Z,6.53
2019-03-21T09:24:16.093Z,6.42
2019-03-21T09:25:21.634Z,6.72
2019-03-21T09:26:27.599Z,7.17
2019-03-21T09:27:33.561Z,6.62
2019-03-21T09:28:40.731Z,5.92
2019-03-21T09:29:53.389Z,5.90
2019-03-21T09:30:56.407Z,6.05
2019-03-21T09:32:00.974Z,6.00
2019-03-21T09:33:06.596Z,6.53
2019-03-21T09:34:12.264Z,6.25
2019-03-21T09:35:17.808Z,7.10
2019-03-21T09:36:23.532Z,7.67
2019-03-21T09:37:29.195Z,5.78
2019-03-21T09:38:34.731Z,6.92
2019-03-21T09:39:40.293Z,6.40
2019-03-21T09:40:45.924Z,7.33
2019-03-21T09:41:51.503Z,6.83
2019-03-21T09:42:56.906Z,7.60
2019-03-21T09:44:02.490Z,7.05
2019-03-21T09:45:08.965Z,6.80
2019-03-21T09:46:15.951Z,6.65
2019-03-21T09:47:21.417Z,6.97
2019-03-21T09:48:26.940Z,7.15
2019-03-21T09:49:32.412Z,8.05
2019-03-21T09:50:37.917Z,6.72
2019-03-21T09:51:43.271Z,6.92
2019-03-21T09:52:48.724Z,7.25
2019-03-21T09:53:54.275Z,7.17
2019-03-21T09:54:59.717Z,7.08
2019-03-21T09:56:05.283Z,7.35
2019-03-21T09:57:10.619Z,7.42
2019-03-21T09:58:16.151Z,6.60
2019-03-21T09:59:21.777Z,6.40
2019-03-21T10:00:37.145Z,6.97
2019-03-21T10:01:42.749Z,6.35
2019-03-21T10:02:48.242Z,6.92
2019-03-21T10:03:53.832Z,6.72
2019-03-21T10:04:59.395Z,6.92
2019-03-21T10:06:05.293Z,6.92
2019-03-21T10:07:10.883Z,7.65
2019-03-21T10:08:16.409Z,6.85
2019-03-21T10:09:21.934Z,7.30
2019-03-21T10:10:30.084Z,7.37
2019-03-21T10:11:35.669Z,6.83
2019-03-21T10:12:42.016Z,6.80
2019-03-21T10:13:47.519Z,6.03
2019-03-21T10:14:53.145Z,6.30
2019-03-21T10:15:58.766Z,6.72
2019-03-21T10:17:04.556Z,6.65
2019-03-21T10:18:10.260Z,6.22
2019-03-21T10:19:15.678Z,6.75
2019-03-21T10:20:21.196Z,6.00
2019-03-21T10:21:26.641Z,8.15
2019-03-21T10:22:32.070Z,6.62
2019-03-21T10:23:37.595Z,6.00
2019-03-21T10:24:43.172Z,6.53
2019-03-21T10:25:48.761Z,6.78
2019-03-21T10:26:54.406Z,6.45
2019-03-21T10:28:02.124Z,6.83
2019-03-21T10:29:07.829Z,7.10
2019-03-21T10:30:15.610Z,8.03
2019-03-21T10:31:21.484Z,7.28
2019-03-21T10:32:27.316Z,7.42
2019-03-21T10:33:32.818Z,7.12
2019-03-21T10:34:38.335Z,6.80
2019-03-21T10:35:43.881Z,7.42
2019-03-21T10:36:49.477Z,7.05
2019-03-21T10:37:55.980Z,7.67
2019-03-21T10:39:01.616Z,8.18
2019-03-21T10:40:08.685Z,7.70
2019-03-21T10:41:15.159Z,8.33
2019-03-21T10:42:20.626Z,8.35
2019-03-21T10:43:27.728Z,7.47
2019-03-21T10:44:33.690Z,7.00
2019-03-21T10:45:39.209Z,7.58
2019-03-21T10:46:44.970Z,8.33
2019-03-21T10:47:50.549Z,8.00
2019-03-21T10:48:56.191Z,8.35
2019-03-21T10:50:01.653Z,9.08
2019-03-21T10:51:07.145Z,7.70
2019-03-21T10:52:12.973Z,7.25
2019-03-21T10:53:18.703Z,8.00
2019-03-21T10:54:26.960Z,7.47
2019-03-21T10:55:32.534Z,8.90
2019-03-21T10:56:37.956Z,7.90
2019-03-21T10:57:43.518Z,7.80
2019-03-21T10:58:49.160Z,8.20
2019-03-21T10:59:57.848Z,7.62
2019-03-21T11:01:03.628Z,8.53
2019-03-21T11:02:10.823Z,12.18
2019-03-21T11:03:16.249Z,7.97
2019-03-21T11:04:22.050Z,8.40
2019-03-21T11:05:28.716Z,8.33
2019-03-21T11:06:34.230Z,8.07
2019-03-21T11:07:39.772Z,7.83
2019-03-21T11:08:45.352Z,8.83
2019-03-21T11:09:51.923Z,8.80
2019-03-21T11:10:57.682Z,8.23
2019-03-21T11:12:03.311Z,8.37
2019-03-21T11:13:08.947Z,9.17
2019-03-21T11:14:14.359Z,8.27
2019-03-21T11:15:19.795Z,7.37
2019-03-21T11:16:25.454Z,9.07
2019-03-21T11:17:31.244Z,8.08
2019-03-21T11:18:36.763Z,8.40
2019-03-21T11:19:42.291Z,8.60
2019-03-21T11:20:47.858Z,8.48
2019-03-21T11:21:53.314Z,9.30
2019-03-21T11:22:58.872Z,8.90
2019-03-21T11:24:04.437Z,9.00
2019-03-21T11:25:10.155Z,8.73
2019-03-21T11:26:15.753Z,8.57
2019-03-21T11:27:21.328Z,9.03
2019-03-21T11:28:26.848Z,9.65
2019-03-21T11:29:32.453Z,9.23
2019-03-21T11:30:45.271Z,8.70
2019-03-21T11:31:51.117Z,9.25
2019-03-21T11:32:57.659Z,8.80
2019-03-21T11:34:03.221Z,9.05
2019-03-21T11:35:08.883Z,8.38
2019-03-21T11:36:14.433Z,9.20
2019-03-21T11:37:19.941Z,8.45
2019-03-21T11:38:25.548Z,8.60
2019-03-21T11:39:31.400Z,8.13
2019-03-21T11:40:37.207Z,8.90
2019-03-21T11:41:42.703Z,9.83
2019-03-21T11:42:48.425Z,10.25
2019-03-21T11:43:54.104Z,9.43
2019-03-21T11:44:59.711Z,9.90
2019-03-21T11:46:05.292Z,9.28
2019-03-21T11:47:11.157Z,9.43
2019-03-21T11:48:17.355Z,9.95
2019-03-21T11:49:23.085Z,9.38
2019-03-21T11:50:28.578Z,9.75
2019-03-21T11:51:34.466Z,8.98
2019-03-21T11:52:41.280Z,9.90
2019-03-21T11:53:48.649Z,9.68
2019-03-21T11:54:54.121Z,10.18
2019-03-21T11:55:59.849Z,9.78
2019-03-21T11:57:05.425Z,9.53
2019-03-21T11:58:11.164Z,9.50
2019-03-21T11:59:16.679Z,9.03
2019-03-21T12:00:22.396Z,10.00
2019-03-21T12:01:27.889Z,9.08
2019-03-21T12:02:33.668Z,9.45
2019-03-21T12:03:39.366Z,10.40
2019-03-21T12:04:47.818Z,13.15
2019-03-21T12:05:53.264Z,9.68
2019-03-21T12:06:58.748Z,10.95
2019-03-21T12:08:04.513Z,10.15
2019-03-21T12:09:10.164Z,10.00
2019-03-21T12:10:16.301Z,9.55
2019-03-21T12:11:21.744Z,11.22
2019-03-21T12:12:27.204Z,9.58
2019-03-21T12:13:32.731Z,9.98
2019-03-21T12:14:38.210Z,10.05
2019-03-21T12:15:43.784Z,10.13
2019-03-21T12:16:49.250Z,9.55
2019-03-21T12:17:54.894Z,10.80
2019-03-21T12:19:00.434Z,9.68
2019-03-21T12:20:07.145Z,11.15
2019-03-21T12:21:12.621Z,10.72
2019-03-21T12:22:29.190Z,10.98
2019-03-21T12:23:25.240Z,11.03
2019-03-21T12:24:30.601Z,11.55
2019-03-21T12:25:36.383Z,12.20
2019-03-21T12:26:41.893Z,16.00
2019-03-21T12:27:47.433Z,18.77
2019-03-21T12:28:53.408Z,13.65
2019-03-21T12:29:58.840Z,13.78
2019-03-21T12:31:04.346Z,14.07
2019-03-21T12:32:10.009Z,18.50
2019-03-21T12:33:15.422Z,14.78
2019-03-21T12:34:20.969Z,13.95
2019-03-21T12:35:26.589Z,13.15
2019-03-21T12:36:50.730Z,12.85
2019-03-21T12:37:56.229Z,12.90
2019-03-21T12:39:02.508Z,12.68
2019-03-21T12:40:08.982Z,13.80
2019-03-21T12:41:14.883Z,13.75
2019-03-21T12:42:20.343Z,13.53
2019-03-21T12:43:25.868Z,14.40
2019-03-21T12:44:31.403Z,15.13
2019-03-21T12:45:37.020Z,14.50
2019-03-21T12:46:42.508Z,14.00
2019-03-21T12:47:48.005Z,14.98
2019-03-21T12:48:53.497Z,15.88
2019-03-21T12:50:00.764Z,15.38
2019-03-21T12:51:06.344Z,16.10
2019-03-21T12:52:12.046Z,15.70
2019-03-21T12:53:17.512Z,15.68
2019-03-21T12:54:23.114Z,15.72
2019-03-21T12:55:28.557Z,16.02
2019-03-21T12:56:34.274Z,15.43
2019-03-21T12:57:39.696Z,15.35
2019-03-21T12:58:45.220Z,16.95
2019-03-21T12:59:50.602Z,16.40
2019-03-21T13:00:55.923Z,15.83
2019-03-21T13:02:01.817Z,17.57
2019-03-21T13:03:07.685Z,16.42
2019-03-21T13:04:13.379Z,17.52
2019-03-21T13:05:27.552Z,16.15
2019-03-21T13:06:33.156Z,15.75
2019-03-21T13:07:40.857Z,16.67
2019-03-21T13:08:46.582Z,16.27
2019-03-21T13:09:52.035Z,18.07
2019-03-21T13:10:57.585Z,17.92
2019-03-21T13:12:03.398Z,16.87
2019-03-21T13:13:08.987Z,16.50
2019-03-21T13:14:14.734Z,20.70
2019-03-21T13:15:29.488Z,17.65
2019-03-21T13:16:27.571Z,16.60
2019-03-21T13:17:35.755Z,17.60
2019-03-21T13:18:41.329Z,16.77
2019-03-21T13:19:46.889Z,16.87
2019-03-21T13:20:52.624Z,16.32
2019-03-21T13:21:58.565Z,17.45
2019-03-21T13:23:04.072Z,16.40
2019-03-21T13:24:09.623Z,16.52
2019-03-21T13:25:15.344Z,16.20
2019-03-21T13:26:20.905Z,16.10
2019-03-21T13:27:27.329Z,17.65
2019-03-21T13:28:32.726Z,16.20
2019-03-21T13:29:38.403Z,16.30
2019-03-21T13:30:44.270Z,17.77
2019-03-21T13:31:49.776Z,16.48
2019-03-21T13:32:55.442Z,16.75
2019-03-21T13:34:01.021Z,17.07
2019-03-21T13:35:07.024Z,16.17
2019-03-21T13:36:12.677Z,14.93
2019-03-21T13:37:18.202Z,16.20
2019-03-21T13:38:23.716Z,15.40
2019-03-21T13:39:29.289Z,16.07
2019-03-21T13:40:35.059Z,14.78
2019-03-21T13:41:40.605Z,14.87
2019-03-21T13:42:45.965Z,16.40
2019-03-21T13:43:51.348Z,16.80
2019-03-21T13:44:56.930Z,14.90
2019-03-21T13:46:02.432Z,16.35
2019-03-21T13:47:09.208Z,16.60
2019-03-21T13:48:14.646Z,15.65
2019-03-21T13:49:20.225Z,15.70
2019-03-21T13:50:25.969Z,14.68
2019-03-21T13:51:33.332Z,16.73
2019-03-21T13:52:38.925Z,16.23
2019-03-21T13:53:44.364Z,15.20
2019-03-21T13:54:49.940Z,15.53
2019-03-21T13:55:55.450Z,16.05
2019-03-21T13:57:00.880Z,16.55
2019-03-21T13:58:06.691Z,16.35
2019-03-21T13:59:12.111Z,17.23
2019-03-21T14:00:20.393Z,17.82
2019-03-21T14:01:25.907Z,17.57
2019-03-21T14:02:31.370Z,16.85
2019-03-21T14:03:36.705Z,16.82
2019-03-21T14:04:42.254Z,16.70
2019-03-21T14:05:48.089Z,16.93
2019-03-21T14:06:53.743Z,18.02
2019-03-21T14:07:59.296Z,16.32
2019-03-21T14:09:06.609Z,17.60
2019-03-21T14:10:12.557Z,18.25
2019-03-21T14:11:19.361Z,17.75
2019-03-21T14:12:24.930Z,18.02
2019-03-21T14:13:30.859Z,19.12
2019-03-21T14:14:36.713Z,19.60
2019-03-21T14:15:42.395Z,17.48
2019-03-21T14:16:47.984Z,17.65
2019-03-21T14:17:53.725Z,18.87
2019-03-21T14:18:59.736Z,17.37
2019-03-21T14:20:06.650Z,18.10
2019-03-21T14:21:12.411Z,18.42
2019-03-21T14:22:17.885Z,18.35
2019-03-21T14:23:23.374Z,18.62
2019-03-21T14:24:32.228Z,17.90
2019-03-21T14:25:37.704Z,17.55